Time;durP1;ratioP1;P1;durP2;ratioP2;P2;SDS_P1;SDS_P2;PMS_P1;PMS_P2;Temp;Humidity;BMP_temperature;BMP_pressure;BME280_temperature;BME280_humidity;BME280_pressure;Samples;Min_cycle;Max_cycle;Signal;HPM_P1;HPM_P2
2021/03/21 00:00:45;;;;;;;6.22;2.97;;;8.90;99.90;;;;;;5010815;28;20079;-82
2021/03/21 00:03:11;;;;;;;6.75;3.00;;;8.90;99.90;;;;;;5010833;28;20152;-78
2021/03/21 00:05:38;;;;;;;5.20;2.83;;;8.90;99.90;;;;;;5010978;28;20061;-79
2021/03/21 00:08:17;;;;;;;7.38;3.50;;;8.90;99.90;;;;;;5010819;28;20057;-79
2021/03/21 00:10:52;;;;;;;5.00;2.50;;;8.90;99.90;;;;;;5010830;28;20037;-78
2021/03/21 00:13:20;;;;;;;6.35;2.80;;;9.00;99.90;;;;;;5010667;28;20033;-77
2021/03/21 00:15:47;;;;;;;5.82;2.85;;;9.00;99.90;;;;;;5010598;28;20027;-76
2021/03/21 00:18:13;;;;;;;4.25;2.25;;;9.00;99.90;;;;;;5078288;28;20121;-81
2021/03/21 00:20:40;;;;;;;4.47;2.35;;;9.00;99.90;;;;;;5010532;28;20030;-79
2021/03/21 00:23:07;;;;;;;9.77;3.30;;;9.10;99.90;;;;;;5010507;28;20025;-75
2021/03/21 00:25:35;;;;;;;9.77;3.08;;;9.10;99.90;;;;;;5010418;28;20021;-76
2021/03/21 00:28:09;;;;;;;5.93;3.13;;;9.10;99.90;;;;;;5078275;28;20483;-77
2021/03/21 00:30:41;;;;;;;6.03;2.80;;;9.20;99.90;;;;;;5010498;28;20030;-75
2021/03/21 00:33:10;;;;;;;8.95;2.53;;;9.20;99.90;;;;;;5010404;28;20038;-77
2021/03/21 00:35:37;;;;;;;7.95;2.70;;;9.20;99.90;;;;;;5077881;28;20503;-76
2021/03/21 00:38:06;;;;;;;4.50;2.83;;;9.10;99.90;;;;;;5078276;28;20087;-79
2021/03/21 00:40:33;;;;;;;4.28;2.13;;;9.10;99.90;;;;;;5010408;28;20126;-76
2021/03/21 00:42:59;;;;;;;4.20;2.70;;;9.10;99.90;;;;;;5010475;28;20278;-76
2021/03/21 00:45:27;;;;;;;5.57;2.83;;;9.10;99.90;;;;;;5077937;28;20033;-75
2021/03/21 00:47:53;;;;;;;3.50;2.42;;;9.10;99.90;;;;;;5009838;28;20037;-75
2021/03/21 00:50:28;;;;;;;5.53;2.63;;;9.00;99.90;;;;;;5009831;28;20487;-75
2021/03/21 00:52:55;;;;;;;6.15;2.40;;;8.90;99.90;;;;;;5009885;28;20041;-75
2021/03/21 00:55:21;;;;;;;7.07;2.40;;;9.00;99.90;;;;;;5010524;28;20113;-80
2021/03/21 00:57:47;;;;;;;5.35;2.80;;;8.90;99.90;;;;;;5027929;28;20037;-75
2021/03/21 01:00:44;;;;;;;6.25;2.47;;;8.90;99.90;;;;;;5010094;28;20025;-76
2021/03/21 01:03:10;;;;;;;3.10;2.13;;;8.90;99.90;;;;;;5010066;28;20514;-80
2021/03/21 01:05:49;;;;;;;6.53;2.58;;;8.90;99.90;;;;;;5077681;28;20514;-78
2021/03/21 01:08:20;;;;;;;3.05;2.20;;;8.90;99.90;;;;;;5009857;28;20488;-76
2021/03/21 01:10:47;;;;;;;3.83;2.00;;;8.90;99.90;;;;;;5111332;27;20026;-79
2021/03/21 01:13:14;;;;;;;4.28;2.33;;;8.90;99.90;;;;;;5009573;28;20106;-80
2021/03/21 01:15:40;;;;;;;3.63;1.95;;;8.90;99.90;;;;;;5009970;28;20034;-79
2021/03/21 01:18:06;;;;;;;6.70;2.33;;;8.90;99.90;;;;;;5009788;28;20040;-79
2021/03/21 01:20:33;;;;;;;4.22;1.90;;;8.90;99.90;;;;;;5009702;28;20030;-76
2021/03/21 01:23:00;;;;;;;4.80;1.80;;;8.80;99.90;;;;;;5009980;28;20034;-76
2021/03/21 01:25:28;;;;;;;4.45;1.90;;;8.80;99.90;;;;;;5009566;28;20536;-78
2021/03/21 01:27:56;;;;;;;4.57;2.20;;;8.90;99.90;;;;;;5009799;28;20057;-79
2021/03/21 01:30:24;;;;;;;4.22;2.22;;;8.90;99.90;;;;;;5009589;28;20026;-76
2021/03/21 01:32:52;;;;;;;4.68;2.30;;;8.90;99.90;;;;;;5009499;28;20037;-80
2021/03/21 01:35:19;;;;;;;3.60;2.00;;;9.00;99.90;;;;;;5009513;28;20037;-77
2021/03/21 01:37:45;;;;;;;3.38;1.80;;;8.90;99.90;;;;;;5009546;28;20034;-79
2021/03/21 01:40:13;;;;;;;2.88;2.08;;;8.90;99.90;;;;;;5009458;28;20504;-79
2021/03/21 01:42:42;;;;;;;6.00;1.70;;;8.90;99.90;;;;;;5009727;28;20026;-79
2021/03/21 01:45:49;;;;;;;4.88;1.95;;;8.90;99.90;;;;;;5009626;28;20030;-78
2021/03/21 01:48:36;;;;;;;3.22;2.03;;;8.90;99.90;;;;;;5029706;28;20029;-76
2021/03/21 01:51:32;;;;;;;2.95;1.63;;;9.00;99.90;;;;;;5013482;28;20057;-79
2021/03/21 01:54:05;;;;;;;3.72;1.70;;;9.00;99.90;;;;;;5012166;28;20049;-76
2021/03/21 01:56:32;;;;;;;3.72;1.98;;;9.00;99.90;;;;;;5009351;28;20471;-79
2021/03/21 01:59:21;;;;;;;3.75;2.17;;;9.00;99.90;;;;;;5009295;28;20026;-78
2021/03/21 02:01:48;;;;;;;5.82;2.47;;;9.00;99.90;;;;;;5011794;28;20071;-76
2021/03/21 02:04:14;;;;;;;4.82;2.10;;;9.00;99.90;;;;;;5012756;28;20026;-76
2021/03/21 02:06:46;;;;;;;5.75;2.70;;;9.00;99.90;;;;;;5012893;28;20396;-76
2021/03/21 02:09:24;;;;;;;3.90;2.25;;;9.00;99.90;;;;;;5012450;28;20037;-76
2021/03/21 02:12:17;;;;;;;4.88;2.17;;;9.00;99.90;;;;;;5015162;28;20494;-75
2021/03/21 02:14:55;;;;;;;;;;;9.00;99.90;;;;;;5024506;28;20510;-77
2021/03/21 02:17:59;;;;;;;8.55;2.45;;;9.00;99.90;;;;;;5012468;28;19916;-78
2021/03/21 02:20:31;;;;;;;7.60;1.90;;;9.00;99.90;;;;;;5012450;28;20083;-75
2021/03/21 02:23:32;;;;;;;3.30;2.40;;;9.00;99.90;;;;;;5012511;28;20030;-75
2021/03/21 02:26:19;;;;;;;5.97;2.40;;;9.00;99.90;;;;;;5080535;28;20419;-76
2021/03/21 02:29:43;;;;;;;4.55;2.30;;;9.00;99.90;;;;;;5012160;28;20479;-77
2021/03/21 02:32:24;;;;;;;4.95;2.70;;;8.90;99.90;;;;;;5032895;28;20038;-78
2021/03/21 02:34:58;;;;;;;8.90;2.67;;;8.80;99.90;;;;;;5033029;28;20132;-79
2021/03/21 02:38:03;;;;;;;5.35;2.38;;;8.80;99.90;;;;;;5019926;28;20042;-78
2021/03/21 02:40:52;;;;;;;5.22;2.00;;;8.80;99.90;;;;;;5035992;28;20044;-76
2021/03/21 02:43:38;;;;;;;3.25;2.10;;;8.80;99.90;;;;;;5052703;28;20028;-78
2021/03/21 02:46:16;;;;;;;7.15;2.22;;;8.80;99.90;;;;;;5021670;28;20376;-77
2021/03/21 02:48:50;;;;;;;2.47;1.70;;;8.90;99.90;;;;;;5079935;28;20033;-79
2021/03/21 02:51:26;;;;;;;2.78;2.08;;;8.90;99.90;;;;;;5011862;28;20033;-75
2021/03/21 02:54:05;;;;;;;3.58;2.47;;;8.90;99.90;;;;;;5011909;28;20042;-75
2021/03/21 02:56:31;;;;;;;5.63;2.45;;;8.90;99.90;;;;;;5011721;28;20126;-75
2021/03/21 02:59:12;;;;;;;4.50;2.67;;;8.90;99.90;;;;;;5011815;28;20072;-78
2021/03/21 03:02:13;;;;;;;8.18;2.75;;;8.90;99.90;;;;;;5011815;28;20028;-79
2021/03/21 03:04:51;;;;;;;4.88;2.17;;;8.90;99.90;;;;;;5011750;28;20512;-77
2021/03/21 03:07:28;;;;;;;6.35;2.58;;;8.80;99.90;;;;;;5011865;28;20029;-76
2021/03/21 03:10:00;;;;;;;3.35;2.28;;;8.80;99.90;;;;;;5011538;28;20112;-76
2021/03/21 03:12:31;;;;;;;3.88;2.33;;;8.80;99.90;;;;;;5010678;28;20052;-75
2021/03/21 03:14:57;;;;;;;3.53;1.95;;;8.80;99.90;;;;;;5011685;28;20030;-76
2021/03/21 03:17:30;;;;;;;3.67;2.15;;;8.80;99.90;;;;;;5011501;28;20026;-76
2021/03/21 03:19:59;;;;;;;;;;;8.80;99.90;;;;;;5012057;28;20022;-76
2021/03/21 03:22:34;;;;;;;5.07;2.30;;;8.80;99.90;;;;;;5011377;28;20388;-76
2021/03/21 03:25:11;;;;;;;5.07;2.33;;;8.80;99.90;;;;;;5079054;28;20445;-76
2021/03/21 03:27:55;;;;;;;7.90;2.30;;;8.80;99.90;;;;;;5013414;28;20030;-75
2021/03/21 03:30:26;;;;;;;5.18;2.58;;;8.80;99.90;;;;;;5092524;28;20388;-76
2021/03/21 03:32:53;;;;;;;4.47;2.53;;;8.80;99.90;;;;;;5011180;28;20046;-76
2021/03/21 03:35:20;;;;;;;9.50;2.65;;;8.80;99.90;;;;;;5011163;28;20099;-76
2021/03/21 03:37:46;;;;;;;5.50;2.50;;;8.90;99.90;;;;;;5011196;28;20022;-76
2021/03/21 03:40:13;;;;;;;6.20;2.58;;;9.00;99.90;;;;;;5011056;28;20037;-78
2021/03/21 03:43:00;;;;;;;6.93;3.15;;;9.00;99.90;;;;;;5011143;28;20037;-77
2021/03/21 03:45:36;;;;;;;4.13;2.40;;;8.90;99.90;;;;;;5010989;28;20026;-77
2021/03/21 03:48:02;;;;;;;4.13;2.30;;;9.00;99.90;;;;;;5079093;28;20038;-75
2021/03/21 03:50:45;;;;;;;7.82;2.60;;;9.00;99.90;;;;;;5010926;28;20464;-76
2021/03/21 03:53:40;;;;;;;5.13;2.78;;;8.90;99.90;;;;;;5010854;28;20049;-77
2021/03/21 03:56:18;;;;;;;7.60;3.67;;;8.90;99.90;;;;;;5078697;28;20026;-78
2021/03/21 03:58:54;;;;;;;5.80;2.60;;;8.90;99.90;;;;;;5010790;28;20113;-78
2021/03/21 04:01:55;;;;;;;5.18;3.20;;;8.90;99.90;;;;;;5011090;28;20110;-80
2021/03/21 04:04:54;;;;;;;3.97;2.75;;;9.00;99.90;;;;;;5031234;28;20108;-75
2021/03/21 04:07:48;;;;;;;4.85;2.50;;;9.00;99.90;;;;;;5010728;28;20056;-77
2021/03/21 04:10:27;;;;;;;7.60;3.45;;;9.00;99.90;;;;;;5010405;28;20111;-76
2021/03/21 04:13:10;;;;;;;5.97;3.90;;;9.00;99.90;;;;;;5010528;28;20117;-77
2021/03/21 04:15:44;;;;;;;4.82;2.47;;;9.00;99.90;;;;;;5010610;28;20022;-78
2021/03/21 04:18:27;;;;;;;4.50;2.75;;;9.00;99.90;;;;;;5010591;28;20040;-78
2021/03/21 04:21:13;;;;;;;6.20;2.45;;;9.00;99.90;;;;;;5078379;28;20074;-76
2021/03/21 04:23:52;;;;;;;4.32;2.75;;;9.00;99.90;;;;;;5009578;28;20022;-76
2021/03/21 04:26:30;;;;;;;6.47;3.10;;;9.00;99.90;;;;;;5078238;28;20036;-75
2021/03/21 04:29:02;;;;;;;5.65;2.97;;;9.00;99.90;;;;;;5078287;28;20029;-75
2021/03/21 04:31:30;;;;;;;6.38;3.00;;;9.00;99.90;;;;;;5078273;28;20085;-79
2021/03/21 04:34:00;;;;;;;5.50;2.50;;;9.10;99.90;;;;;;5010282;28;20121;-75
2021/03/21 04:36:31;;;;;;;7.05;2.78;;;9.10;99.90;;;;;;5010400;28;20029;-76
2021/03/21 04:39:10;;;;;;;5.32;2.70;;;9.10;99.90;;;;;;5010388;28;20082;-79
2021/03/21 04:41:58;;;;;;;4.38;2.80;;;9.10;99.90;;;;;;5010260;28;20103;-75
2021/03/21 04:44:38;;;;;;;8.55;2.97;;;9.10;99.90;;;;;;5020063;28;20479;-76
2021/03/21 04:47:16;;;;;;;6.07;2.67;;;9.10;99.90;;;;;;5016503;28;20381;-76
2021/03/21 04:49:45;;;;;;;7.13;3.53;;;9.20;99.90;;;;;;5010019;28;20025;-75
2021/03/21 04:52:33;;;;;;;8.07;3.78;;;9.20;99.90;;;;;;5077760;28;20118;-76
2021/03/21 04:55:03;;;;;;;5.80;3.20;;;9.20;99.90;;;;;;5010111;28;20026;-75
2021/03/21 04:57:43;;;;;;;7.40;3.58;;;9.30;99.90;;;;;;5010002;28;20089;-75
2021/03/21 05:00:43;;;;;;;7.45;3.88;;;9.20;99.90;;;;;;5077636;28;20384;-76
2021/03/21 05:03:51;;;;;;;7.03;3.95;;;9.20;99.90;;;;;;5014312;28;20042;-79
2021/03/21 05:06:23;;;;;;;6.68;3.88;;;9.20;99.90;;;;;;5030255;28;20037;-75
2021/03/21 05:09:14;;;;;;;5.47;3.55;;;9.20;99.90;;;;;;5030216;28;20033;-79
2021/03/21 05:11:48;;;;;;;7.78;3.58;;;9.20;99.90;;;;;;5051879;28;20077;-79
2021/03/21 05:14:32;;;;;;;5.90;4.18;;;9.30;99.90;;;;;;5009772;28;20034;-79
2021/03/21 05:17:16;;;;;;;;;;;9.30;99.90;;;;;;5077903;28;20030;-79
2021/03/21 05:19:56;;;;;;;7.72;3.55;;;9.30;99.90;;;;;;5009786;28;20379;-79
2021/03/21 05:22:41;;;;;;;7.75;4.47;;;9.30;99.90;;;;;;5009662;28;20030;-75
2021/03/21 05:25:24;;;;;;;8.50;4.43;;;9.30;99.90;;;;;;5009666;28;20590;-76
2021/03/21 05:28:14;;;;;;;7.80;4.63;;;9.30;99.90;;;;;;5009681;28;20540;-76
2021/03/21 05:30:40;;;;;;;11.70;4.88;;;9.30;99.90;;;;;;5012295;28;20658;-77
2021/03/21 05:33:07;;;;;;;6.90;4.55;;;9.30;99.90;;;;;;5009487;28;20081;-79
2021/03/21 05:35:36;;;;;;;10.07;4.63;;;9.30;99.90;;;;;;5011720;28;20018;-80
2021/03/21 05:38:14;;;;;;;7.70;3.58;;;9.30;99.90;;;;;;5013042;28;20038;-78
2021/03/21 05:40:43;;;;;;;7.53;3.78;;;9.40;99.90;;;;;;5013003;28;20022;-79
2021/03/21 05:43:28;;;;;;;7.00;4.13;;;9.40;99.90;;;;;;5013034;28;20034;-78
2021/03/21 05:46:26;;;;;;;6.93;3.80;;;9.50;99.90;;;;;;5013351;28;20436;-79
2021/03/21 05:49:07;;;;;;;5.28;3.00;;;9.50;99.90;;;;;;5035210;28;20080;-79
2021/03/21 05:51:45;;;;;;;7.35;3.33;;;9.50;99.90;;;;;;5081066;28;20056;-77
2021/03/21 05:54:49;;;;;;;6.50;3.20;;;9.60;99.90;;;;;;5012873;28;20069;-80
2021/03/21 05:57:44;;;;;;;6.85;2.90;;;9.60;99.90;;;;;;5024788;28;20117;-79
2021/03/21 06:00:30;;;;;;;8.20;3.17;;;9.70;99.90;;;;;;5022233;28;20022;-78
2021/03/21 06:03:08;;;;;;;5.07;3.05;;;9.70;99.90;;;;;;5018901;28;20038;-77
2021/03/21 06:05:53;;;;;;;5.38;3.08;;;9.80;99.90;;;;;;5012728;28;20097;-77
2021/03/21 06:08:46;;;;;;;5.05;2.88;;;9.80;99.90;;;;;;5012644;28;20104;-79
2021/03/21 06:11:30;;;;;;;7.85;3.22;;;9.90;99.90;;;;;;5012376;28;20026;-77
2021/03/21 06:14:12;;;;;;;5.85;2.80;;;10.00;99.90;;;;;;5012448;28;20049;-78
2021/03/21 06:17:05;;;;;;;5.18;2.25;;;9.90;99.90;;;;;;5012623;28;20092;-77
2021/03/21 06:20:20;;;;;;;5.10;2.67;;;10.00;99.90;;;;;;5012442;28;20033;-77
2021/03/21 06:23:16;;;;;;;5.18;2.08;;;10.00;99.90;;;;;;5021360;28;20045;-81
2021/03/21 06:26:07;;;;;;;6.93;2.38;;;10.00;99.90;;;;;;5080695;28;20480;-78
2021/03/21 06:29:00;;;;;;;3.85;2.13;;;10.10;99.90;;;;;;5012248;28;20033;-77
2021/03/21 06:31:59;;;;;;;3.47;2.40;;;10.10;99.90;;;;;;5080273;28;20072;-79
2021/03/21 06:34:59;;;;;;;6.43;2.78;;;10.10;99.90;;;;;;5012212;28;20424;-78
2021/03/21 06:38:08;;;;;;;4.47;2.47;;;10.00;99.90;;;;;;5012246;28;20065;-78
2021/03/21 06:40:36;;;;;;;3.63;1.88;;;10.10;99.90;;;;;;5012075;28;20026;-78
2021/03/21 06:43:20;;;;;;;3.13;1.98;;;10.10;99.90;;;;;;5012043;28;20042;-78
2021/03/21 06:46:17;;;;;;;3.53;2.10;;;10.20;99.90;;;;;;5011965;28;20061;-80
2021/03/21 06:49:01;;;;;;;4.75;2.53;;;10.30;99.90;;;;;;5080008;28;20590;-79
2021/03/21 06:51:55;;;;;;;3.72;2.03;;;10.20;99.90;;;;;;5011895;28;20073;-81
2021/03/21 06:54:25;;;;;;;4.25;1.73;;;10.20;99.90;;;;;;5012097;28;20037;-82
2021/03/21 06:57:18;;;;;;;3.63;1.58;;;10.20;99.90;;;;;;5012030;28;20025;-80
2021/03/21 07:00:12;;;;;;;3.58;1.95;;;10.10;99.90;;;;;;5019419;28;20038;-78
2021/03/21 07:03:02;;;;;;;3.58;1.67;;;10.00;99.90;;;;;;5011816;28;20041;-79
2021/03/21 07:06:05;;;;;;;5.20;1.80;;;9.90;99.90;;;;;;5011784;28;20025;-81
2021/03/21 07:08:49;;;;;;;2.40;1.35;;;9.90;99.90;;;;;;5011744;28;20510;-80
2021/03/21 07:11:37;;;;;;;2.25;1.67;;;9.90;99.90;;;;;;5011106;28;20038;-77
2021/03/21 07:14:09;;;;;;;3.47;1.85;;;10.00;99.90;;;;;;5012319;28;20045;-78
2021/03/21 07:17:13;;;;;;;3.13;1.63;;;9.90;99.90;;;;;;5093886;28;20022;-78
2021/03/21 07:19:51;;;;;;;4.70;1.65;;;9.90;99.90;;;;;;5011479;28;20026;-81
2021/03/21 07:22:53;;;;;;;3.97;1.60;;;9.90;99.90;;;;;;5011344;28;20433;-79
2021/03/21 07:25:35;;;;;;;4.55;1.80;;;9.80;99.90;;;;;;5011375;28;20379;-83
2021/03/21 07:28:38;;;;;;;4.53;1.60;;;9.70;99.90;;;;;;5079260;28;20034;-78
2021/03/21 07:31:07;;;;;;;4.00;2.03;;;9.70;99.90;;;;;;5079148;28;20487;-78
2021/03/21 07:33:51;;;;;;;4.85;1.83;;;9.60;99.90;;;;;;5079139;28;20042;-78
2021/03/21 07:36:40;;;;;;;6.85;2.08;;;9.60;99.90;;;;;;5011188;28;20029;-79
2021/03/21 07:39:23;;;;;;;3.28;1.95;;;9.60;99.90;;;;;;5021206;28;20065;-81
2021/03/21 07:41:52;;;;;;;;;;;9.60;99.90;;;;;;5011609;28;20026;-79
2021/03/21 07:44:37;;;;;;;3.03;1.30;;;9.60;99.90;;;;;;5011160;28;19910;-79
2021/03/21 07:47:41;;;;;;;2.88;1.30;;;9.60;99.90;;;;;;5011047;28;20078;-79
2021/03/21 07:50:47;;;;;;;2.30;1.40;;;9.60;99.90;;;;;;5066640;28;20492;-77
2021/03/21 07:53:25;;;;;;;2.65;1.42;;;9.60;99.90;;;;;;5013633;28;20137;-78
2021/03/21 07:56:00;;;;;;;3.53;1.65;;;9.60;99.90;;;;;;5011139;28;20026;-80
2021/03/21 07:58:43;;;;;;;2.10;1.58;;;9.60;99.90;;;;;;5010819;28;20025;-80
2021/03/21 08:01:10;;;;;;;3.55;1.85;;;9.60;99.90;;;;;;5011169;28;20483;-79
2021/03/21 08:03:46;;;;;;;4.90;1.55;;;9.60;99.90;;;;;;5078567;28;20100;-78
2021/03/21 08:06:23;;;;;;;3.70;1.50;;;9.70;99.90;;;;;;5010862;28;20034;-80
2021/03/21 08:08:56;;;;;;;1.92;1.38;;;9.70;99.90;;;;;;5010819;28;20030;-81
2021/03/21 08:11:27;;;;;;;3.75;1.95;;;9.70;99.90;;;;;;5010513;28;20538;-80
2021/03/21 08:14:02;;;;;;;5.72;2.08;;;9.70;99.90;;;;;;5010727;28;20530;-80
2021/03/21 08:16:40;;;;;;;4.00;1.73;;;9.60;99.90;;;;;;5010762;28;20433;-77
2021/03/21 08:19:06;;;;;;;4.85;1.75;;;9.70;99.90;;;;;;5010646;28;20029;-79
2021/03/21 08:21:33;;;;;;;3.13;2.08;;;9.70;99.90;;;;;;5010684;28;20022;-79
2021/03/21 08:24:23;;;;;;;3.55;1.60;;;9.80;99.90;;;;;;5010752;28;20030;-77
2021/03/21 08:26:49;;;;;;;4.15;1.67;;;9.70;99.90;;;;;;5078198;28;20480;-78
2021/03/21 08:29:26;;;;;;;5.63;1.98;;;9.90;99.90;;;;;;5010769;28;20487;-78
2021/03/21 08:32:09;;;;;;;2.03;1.60;;;9.90;99.90;;;;;;5018803;28;20164;-77
2021/03/21 08:34:49;;;;;;;2.40;1.17;;;10.00;99.90;;;;;;5017090;28;20034;-80
2021/03/21 08:37:47;;;;;;;7.13;2.03;;;10.00;99.90;;;;;;5010410;28;20518;-79
2021/03/21 08:40:36;;;;;;;25.42;2.58;;;10.00;99.90;;;;;;5010388;28;20038;-78
2021/03/21 08:43:09;;;;;;;4.45;1.88;;;10.00;99.90;;;;;;5010367;28;20041;-78
2021/03/21 08:45:43;;;;;;;5.70;2.03;;;10.00;99.90;;;;;;5010235;28;20054;-77
2021/03/21 08:48:13;;;;;;;4.07;1.77;;;9.80;99.90;;;;;;5010292;28;20430;-78
2021/03/21 08:50:45;;;;;;;8.93;1.90;;;9.80;99.90;;;;;;5010231;28;20037;-78
2021/03/21 08:53:32;;;;;;;5.38;2.33;;;9.80;99.90;;;;;;5077732;28;20399;-79
2021/03/21 08:56:17;;;;;;;6.15;2.20;;;9.80;99.90;;;;;;5010202;28;20083;-77
2021/03/21 08:58:44;;;;;;;3.28;2.03;;;9.90;99.90;;;;;;5010018;28;20025;-77
2021/03/21 09:01:25;;;;;;;5.22;2.58;;;9.90;99.90;;;;;;5010281;28;20489;-77
2021/03/21 09:04:07;;;;;;;4.88;2.25;;;9.90;99.90;;;;;;5077722;28;20224;-77
2021/03/21 09:06:35;;;;;;;4.35;2.08;;;10.00;99.90;;;;;;5077511;28;20446;-78
2021/03/21 09:09:32;;;;;;;3.25;1.65;;;9.90;99.90;;;;;;5009350;28;20026;-79
2021/03/21 09:12:18;;;;;;;5.03;1.70;;;9.90;99.90;;;;;;5010961;28;20064;-79
2021/03/21 09:14:44;;;;;;;4.38;1.55;;;9.80;99.90;;;;;;5009782;28;20083;-82
2021/03/21 09:17:25;;;;;;;2.90;1.40;;;9.80;99.90;;;;;;5009743;28;20026;-77
2021/03/21 09:20:02;;;;;;;3.33;1.65;;;9.80;99.90;;;;;;5009771;28;20034;-77
2021/03/21 09:22:40;;;;;;;4.20;1.25;;;9.80;99.90;;;;;;5009799;28;20022;-80
2021/03/21 09:25:14;;;;;;;4.32;1.67;;;9.90;99.90;;;;;;5009763;28;20113;-81
2021/03/21 09:27:42;;;;;;;3.83;1.70;;;9.90;99.90;;;;;;5077367;28;20383;-79
2021/03/21 09:30:41;;;;;;;2.63;1.35;;;9.90;99.90;;;;;;5009686;28;20040;-78
2021/03/21 09:33:26;;;;;;;5.75;1.70;;;9.90;99.90;;;;;;5077141;28;20445;-80
2021/03/21 09:36:21;;;;;;;2.30;1.45;;;10.00;99.90;;;;;;5009520;28;20105;-77
2021/03/21 09:38:56;;;;;;;2.53;1.60;;;9.90;99.90;;;;;;5011276;28;20042;-77
2021/03/21 09:41:23;;;;;;;11.82;6.85;;;9.90;99.90;;;;;;5009505;28;20091;-78
2021/03/21 09:43:50;;;;;;;46.13;20.60;;;9.90;99.90;;;;;;5009515;28;20018;-77
2021/03/21 09:46:47;;;;;;;29.15;14.77;;;9.90;99.90;;;;;;5009835;28;20022;-80
2021/03/21 09:49:36;;;;;;;12.05;3.80;;;9.90;99.90;;;;;;5030838;28;20046;-80
2021/03/21 09:52:32;;;;;;;7.65;3.05;;;9.90;99.90;;;;;;5009346;28;20030;-80
2021/03/21 09:55:25;;;;;;;3.30;2.13;;;10.00;99.90;;;;;;5009416;28;20037;-77
2021/03/21 09:58:10;;;;;;;8.30;4.15;;;9.90;99.90;;;;;;5009391;28;20101;-77
2021/03/21 10:00:39;;;;;;;14.15;7.82;;;9.90;99.90;;;;;;5009291;28;20531;-80
2021/03/21 10:03:32;;;;;;;4.90;3.55;;;9.80;99.90;;;;;;5009321;28;20071;-78
2021/03/21 10:06:19;;;;;;;4.82;2.90;;;9.80;99.90;;;;;;5009180;28;20029;-78
2021/03/21 10:09:03;;;;;;;5.07;2.50;;;9.80;99.90;;;;;;5009265;28;20056;-78
2021/03/21 10:11:39;;;;;;;4.78;2.45;;;9.80;99.90;;;;;;5008809;28;20516;-80
2021/03/21 10:14:24;;;;;;;4.95;3.47;;;9.80;99.90;;;;;;5009062;28;20069;-77
2021/03/21 10:16:54;;;;;;;5.38;4.13;;;9.80;99.90;;;;;;5009311;28;20057;-77
2021/03/21 10:19:39;;;;;;;3.10;2.13;;;9.90;99.90;;;;;;5009232;28;20479;-81
2021/03/21 10:22:19;;;;;;;5.03;3.47;;;9.80;99.90;;;;;;5010758;28;20026;-79
2021/03/21 10:24:48;;;;;;;5.13;3.03;;;9.80;99.90;;;;;;5012587;28;20034;-77
2021/03/21 10:27:20;;;;;;;3.72;2.53;;;9.80;99.90;;;;;;5012209;28;20037;-77
2021/03/21 10:30:14;;;;;;;6.30;1.70;;;9.80;99.90;;;;;;5012974;28;20038;-77
2021/03/21 10:32:42;;;;;;;;;;;9.70;99.90;;;;;;5012642;28;20387;-80
2021/03/21 10:35:31;;;;;;;2.78;1.35;;;9.70;99.90;;;;;;5012147;28;20248;-80
2021/03/21 10:38:38;;;;;;;4.60;2.10;;;9.70;99.90;;;;;;5014831;28;20042;-79
2021/03/21 10:41:04;;;;;;;4.75;2.47;;;9.60;99.90;;;;;;5053098;28;20080;-80
2021/03/21 10:43:30;;;;;;;2.83;1.75;;;9.60;99.90;;;;;;5012087;28;20058;-80
2021/03/21 10:45:56;;;;;;;5.65;1.73;;;9.60;99.90;;;;;;5012027;28;20041;-81
2021/03/21 10:48:25;;;;;;;5.38;2.10;;;9.60;99.90;;;;;;5011939;28;20403;-78
2021/03/21 10:51:06;;;;;;;6.30;1.83;;;9.60;99.90;;;;;;5011980;28;20030;-81
2021/03/21 10:53:37;;;;;;;7.03;2.60;;;9.70;99.90;;;;;;5011859;28;20041;-77
2021/03/21 10:56:17;;;;;;;6.00;2.53;;;9.60;99.90;;;;;;5011929;28;20034;-81
2021/03/21 10:58:44;;;;;;;9.73;1.50;;;9.70;99.90;;;;;;5079880;28;20491;-79
2021/03/21 11:04:06;;;;;;;10.45;2.80;;;9.60;99.90;;;;;;5017546;28;20503;-77
2021/03/21 11:06:35;;;;;;;11.27;3.25;;;9.60;99.90;;;;;;5014875;28;20117;-79
2021/03/21 11:09:13;;;;;;;4.05;2.63;;;9.60;99.90;;;;;;5011838;28;20022;-79
2021/03/21 11:11:43;;;;;;;9.30;2.10;;;9.60;99.90;;;;;;5011869;28;20515;-80
2021/03/21 11:14:20;;;;;;;5.57;2.70;;;9.60;99.90;;;;;;5011657;28;20134;-78
2021/03/21 11:17:11;;;;;;;5.25;2.17;;;9.60;99.90;;;;;;5011635;28;20033;-81
2021/03/21 11:19:46;;;;;;;6.22;2.13;;;9.50;99.90;;;;;;5011421;28;20079;-79
2021/03/21 11:22:42;;;;;;;6.22;2.22;;;9.50;99.90;;;;;;5011450;28;20042;-79
2021/03/21 11:25:13;;;;;;;3.63;1.90;;;9.40;99.90;;;;;;5062944;28;20105;-80
2021/03/21 11:27:39;;;;;;;5.15;3.00;;;9.40;99.90;;;;;;5011439;28;20045;-80
2021/03/21 11:30:08;;;;;;;18.42;7.93;;;9.30;99.90;;;;;;5011298;28;20029;-82
2021/03/21 11:32:35;;;;;;;38.47;14.05;;;9.30;99.90;;;;;;5010796;28;20487;-78
2021/03/21 11:35:07;;;;;;;8.13;4.03;;;9.30;99.90;;;;;;5011269;28;20381;-77
2021/03/21 11:37:37;;;;;;;8.32;3.03;;;9.30;99.90;;;;;;5011348;28;20018;-77
2021/03/21 11:40:21;;;;;;;4.38;1.60;;;9.30;99.90;;;;;;5011249;28;20034;-79
2021/03/21 11:43:03;;;;;;;7.82;2.10;;;9.30;99.90;;;;;;5011407;28;20032;-77
2021/03/21 11:45:33;;;;;;;6.28;2.63;;;9.30;99.90;;;;;;5062200;28;20116;-77
2021/03/21 11:48:08;;;;;;;5.78;1.52;;;9.30;99.90;;;;;;5079144;28;20026;-78
2021/03/21 11:50:36;;;;;;;4.90;1.85;;;9.30;99.90;;;;;;5010935;28;20023;-77
2021/03/21 11:53:05;;;;;;;5.97;2.00;;;9.20;99.90;;;;;;5011164;28;20034;-78
2021/03/21 11:55:37;;;;;;;7.20;1.35;;;9.20;99.90;;;;;;5011131;28;20060;-80
2021/03/21 11:58:27;;;;;;;6.63;2.38;;;9.20;99.90;;;;;;5011213;28;20033;-80
2021/03/21 12:01:03;;;;;;;6.50;1.40;;;9.20;99.90;;;;;;5010942;28;20029;-80
2021/03/21 12:03:43;;;;;;;3.90;2.00;;;9.20;99.90;;;;;;5078543;28;20026;-77
2021/03/21 12:06:31;;;;;;;3.90;1.80;;;9.20;99.90;;;;;;5010942;28;20037;-79
2021/03/21 12:09:35;;;;;;;2.80;1.55;;;9.20;99.90;;;;;;5010756;28;20403;-77
2021/03/21 12:12:05;;;;;;;3.45;1.90;;;9.20;99.90;;;;;;5014507;28;20480;-79
2021/03/21 12:14:31;;;;;;;4.25;2.58;;;9.20;99.90;;;;;;5010797;28;20038;-77
2021/03/21 12:16:59;;;;;;;9.40;3.03;;;9.20;99.90;;;;;;5010863;28;20041;-80
2021/03/21 12:19:29;;;;;;;9.60;2.97;;;9.10;99.90;;;;;;5012738;28;20034;-76
2021/03/21 12:22:03;;;;;;;8.82;3.20;;;9.00;99.90;;;;;;5013803;28;20026;-78
2021/03/21 12:24:29;;;;;;;7.53;2.90;;;9.00;99.90;;;;;;5010624;28;20030;-77
2021/03/21 12:27:26;;;;;;;9.75;4.35;;;9.00;99.90;;;;;;5010570;28;20058;-77
2021/03/21 12:29:53;;;;;;;6.80;2.53;;;9.00;99.90;;;;;;5010593;28;20029;-78
2021/03/21 12:32:28;;;;;;;3.40;1.92;;;9.00;99.90;;;;;;5010461;28;20028;-78
2021/03/21 12:34:54;;;;;;;2.28;1.33;;;8.90;99.90;;;;;;5010506;28;20034;-80
2021/03/21 12:37:26;;;;;;;4.05;1.73;;;8.90;99.90;;;;;;5010557;28;20054;-78
2021/03/21 12:40:09;;;;;;;2.60;1.20;;;8.80;99.90;;;;;;5010503;28;20110;-78
2021/03/21 12:42:38;;;;;;;2.67;1.38;;;8.90;99.90;;;;;;5010339;28;20079;-78
2021/03/21 12:45:16;;;;;;;6.20;2.05;;;8.80;99.90;;;;;;5009470;28;20033;-78
2021/03/21 12:47:54;;;;;;;5.25;1.38;;;8.80;99.90;;;;;;5010266;28;20044;-78
2021/03/21 12:50:38;;;;;;;2.90;2.03;;;8.80;99.90;;;;;;5010102;28;20018;-78
2021/03/21 12:53:07;;;;;;;8.15;1.48;;;8.80;99.90;;;;;;5010263;28;20153;-80
2021/03/21 12:55:33;;;;;;;3.92;1.75;;;8.90;99.90;;;;;;5077724;28;20110;-77
2021/03/21 12:57:59;;;;;;;3.22;1.42;;;8.90;99.90;;;;;;5010344;28;20101;-77
2021/03/21 13:00:28;;;;;;;3.33;1.98;;;8.80;99.90;;;;;;5009967;28;20199;-81
2021/03/21 13:02:55;;;;;;;10.07;3.78;;;8.80;99.90;;;;;;5010173;28;20038;-80
2021/03/21 13:05:27;;;;;;;6.97;4.15;;;8.90;99.90;;;;;;5010130;28;20029;-78
2021/03/21 13:07:53;;;;;;;9.50;4.00;;;8.80;99.90;;;;;;5010056;28;20033;-77
2021/03/21 13:10:20;;;;;;;4.95;2.75;;;8.80;99.90;;;;;;5009625;28;20029;-77
2021/03/21 13:12:46;;;;;;;7.07;3.63;;;8.80;99.90;;;;;;5009854;28;20080;-78
2021/03/21 13:15:12;;;;;;;5.63;2.38;;;8.80;99.90;;;;;;5009931;28;20475;-77
2021/03/21 13:17:39;;;;;;;3.08;1.85;;;8.70;99.90;;;;;;5077089;28;20142;-80
2021/03/21 13:20:09;;;;;;;5.32;2.20;;;8.70;99.90;;;;;;5077565;28;20037;-77
2021/03/21 13:22:35;;;;;;;5.65;2.78;;;8.70;99.90;;;;;;5009752;28;20029;-78
2021/03/21 13:25:01;;;;;;;7.72;2.70;;;8.60;99.90;;;;;;5009750;28;20037;-77
2021/03/21 13:27:27;;;;;;;5.75;2.85;;;8.60;99.90;;;;;;5009705;28;20433;-77
2021/03/21 13:29:54;;;;;;;3.55;2.15;;;8.50;99.90;;;;;;5009824;28;20026;-77
2021/03/21 13:32:20;;;;;;;5.95;2.10;;;8.50;99.90;;;;;;5077549;28;20038;-80
2021/03/21 13:34:46;;;;;;;7.50;1.88;;;8.50;99.90;;;;;;5009913;28;20072;-76
2021/03/21 13:37:12;;;;;;;4.43;2.17;;;8.50;99.90;;;;;;5013438;28;20026;-77
2021/03/21 13:39:38;;;;;;;4.03;2.50;;;8.40;99.90;;;;;;5010066;28;20078;-80
2021/03/21 13:42:06;;;;;;;3.85;2.13;;;8.40;99.90;;;;;;5009702;28;20087;-80
2021/03/21 13:44:32;;;;;;;4.43;2.50;;;8.30;99.90;;;;;;5009802;28;20409;-79
2021/03/21 13:46:57;;;;;;;5.75;2.75;;;8.30;99.90;;;;;;5009774;28;20109;-80
2021/03/21 13:49:23;;;;;;;6.68;2.05;;;8.30;99.90;;;;;;5009555;28;20030;-79
2021/03/21 13:51:49;;;;;;;18.73;4.55;;;8.30;99.90;;;;;;5009478;28;20061;-78
2021/03/21 13:54:17;;;;;;;6.97;2.28;;;8.30;99.90;;;;;;5009346;28;20034;-78
2021/03/21 13:56:43;;;;;;;5.90;2.08;;;8.30;99.90;;;;;;5011850;28;20033;-79